Pagrindinis puslapis
METAR-TAF:

METAR-TAF

Oro uostai :

Oro pajėgų bazė

Niederstetten, Vokietija

platuma: 49-24N, ilguma: 009-58E, Aukštis: 468 m

Dabartinis oras

Ataskaita buvo paskelbta 30 minutes, ne 09:20 UTC
Vėjas 8 kt iš Rytų/Pietryčių
Temperatūra 13°C
Drėgmė 47%
Slėgis 1028 hPa
Matomumas 10 km arba daugiau
Su prošvaistėmis ne aukštis 28000 ft

METAR: ETHN 200920Z 11008KT 9999 BKN280 13/02 Q1028 BLU+BLU+

Laikas: 11:50 (09:50 UTC)

Prognozė

Ataskaita buvo paskelbta 24 minutes, ne 09:26 UTC
Prognozė galioja nuo 20 metu 08 UTC su 20 metu 17 UTC
Vėjas 10 kt iš Rytų
Matomumas: 1000 m
Su prošvaistėmis ne aukštis 30000 ft

TAF: ETHN 200926Z 2008/2017 09010KT 9999 NSW BKN300 CANCEL 1000

Orai ataskaitas ir orų prognozės (METAR, TAF).

turimą stotys yra geltonos ir raudonos taškus žemėlapyje.

Perkelti pele per norėdami pamatyti stoties vardą.

Tada spustelėkite, norėdami matyti oro stebėjimo ir prognozės.

Norėdami pakeisti žemėlapį: spustelėkite ant žalios mygtukų su juodo kryžiaus žemyn,; žalią mygtuką su brūkšneliu, jei norite nutolinti; arba žalių rodyklių gretimoms žemėlapius.


METAR-TAF: